sensor_id;sensor_type;location;lat;lon;timestamp;P1;durP1;ratioP1;P2;durP2;ratioP2
49221;SDS011;35047;37.588;-122.048;2023-04-29T00:01:55;0.20;;;0.20;;
49221;SDS011;35047;37.588;-122.048;2023-04-29T00:04:23;0.88;;;0.25;;
49221;SDS011;35047;37.588;-122.048;2023-04-29T00:06:50;0.10;;;0.10;;
49221;SDS011;35047;37.588;-122.048;2023-04-29T00:09:17;0.10;;;0.10;;
49221;SDS011;35047;37.588;-122.048;2023-04-29T00:11:43;0.10;;;0.10;;
49221;SDS011;35047;37.588;-122.048;2023-04-29T00:14:11;0.20;;;0.20;;
49221;SDS011;35047;37.588;-122.048;2023-04-29T00:16:38;0.85;;;0.20;;
49221;SDS011;35047;37.588;-122.048;2023-04-29T00:19:05;0.35;;;0.30;;
49221;SDS011;35047;37.588;-122.048;2023-04-29T00:21:31;0.77;;;0.20;;
49221;SDS011;35047;37.588;-122.048;2023-04-29T00:23:58;0.25;;;0.25;;
49221;SDS011;35047;37.588;-122.048;2023-04-29T00:26:25;0.15;;;0.15;;
49221;SDS011;35047;37.588;-122.048;2023-04-29T00:28:52;0.28;;;0.28;;
49221;SDS011;35047;37.588;-122.048;2023-04-29T00:31:19;0.05;;;0.05;;
49221;SDS011;35047;37.588;-122.048;2023-04-29T00:36:12;0.22;;;0.22;;
49221;SDS011;35047;37.588;-122.048;2023-04-29T00:38:38;0.10;;;0.05;;
49221;SDS011;35047;37.588;-122.048;2023-04-29T00:41:05;0.10;;;0.10;;
49221;SDS011;35047;37.588;-122.048;2023-04-29T00:43:31;6.85;;;0.15;;
49221;SDS011;35047;37.588;-122.048;2023-04-29T00:45:58;0.08;;;0.08;;
49221;SDS011;35047;37.588;-122.048;2023-04-29T00:48:24;2.58;;;0.30;;
49221;SDS011;35047;37.588;-122.048;2023-04-29T00:50:51;3.85;;;0.77;;
49221;SDS011;35047;37.588;-122.048;2023-04-29T00:53:17;0.38;;;0.17;;
49221;SDS011;35047;37.588;-122.048;2023-04-29T00:55:44;0.75;;;0.35;;
49221;SDS011;35047;37.588;-122.048;2023-04-29T00:58:12;0.00;;;0.00;;
49221;SDS011;35047;37.588;-122.048;2023-04-29T01:00:39;0.30;;;0.20;;
49221;SDS011;35047;37.588;-122.048;2023-04-29T01:03:08;0.10;;;0.10;;
49221;SDS011;35047;37.588;-122.048;2023-04-29T01:05:35;0.32;;;0.10;;
49221;SDS011;35047;37.588;-122.048;2023-04-29T01:11:07;0.13;;;0.13;;
49221;SDS011;35047;37.588;-122.048;2023-04-29T01:13:43;1.63;;;0.45;;
49221;SDS011;35047;37.588;-122.048;2023-04-29T01:16:20;0.57;;;0.10;;
49221;SDS011;35047;37.588;-122.048;2023-04-29T01:19:01;0.10;;;0.10;;
49221;SDS011;35047;37.588;-122.048;2023-04-29T01:21:45;1.20;;;0.40;;
49221;SDS011;35047;37.588;-122.048;2023-04-29T01:24:15;0.00;;;0.00;;
49221;SDS011;35047;37.588;-122.048;2023-04-29T01:26:48;0.20;;;0.20;;
49221;SDS011;35047;37.588;-122.048;2023-04-29T01:32:24;0.32;;;0.17;;
49221;SDS011;35047;37.588;-122.048;2023-04-29T01:35:29;0.70;;;0.32;;
49221;SDS011;35047;37.588;-122.048;2023-04-29T01:40:46;0.38;;;0.17;;
49221;SDS011;35047;37.588;-122.048;2023-04-29T01:43:33;0.20;;;0.20;;
49221;SDS011;35047;37.588;-122.048;2023-04-29T01:46:08;1.17;;;0.20;;
49221;SDS011;35047;37.588;-122.048;2023-04-29T01:48:36;0.10;;;0.10;;
49221;SDS011;35047;37.588;-122.048;2023-04-29T01:51:02;0.22;;;0.22;;
49221;SDS011;35047;37.588;-122.048;2023-04-29T01:53:30;0.35;;;0.28;;
49221;SDS011;35047;37.588;-122.048;2023-04-29T01:55:57;0.15;;;0.15;;
49221;SDS011;35047;37.588;-122.048;2023-04-29T01:58:24;0.22;;;0.20;;
49221;SDS011;35047;37.588;-122.048;2023-04-29T02:00:52;0.17;;;0.17;;
49221;SDS011;35047;37.588;-122.048;2023-04-29T02:03:19;0.17;;;0.10;;
49221;SDS011;35047;37.588;-122.048;2023-04-29T02:05:46;0.10;;;0.10;;
49221;SDS011;35047;37.588;-122.048;2023-04-29T02:08:15;0.25;;;0.25;;
49221;SDS011;35047;37.588;-122.048;2023-04-29T02:10:50;0.15;;;0.15;;
49221;SDS011;35047;37.588;-122.048;2023-04-29T02:13:18;0.08;;;0.08;;
49221;SDS011;35047;37.588;-122.048;2023-04-29T02:15:44;0.43;;;0.15;;
49221;SDS011;35047;37.588;-122.048;2023-04-29T02:18:11;0.00;;;0.00;;
49221;SDS011;35047;37.588;-122.048;2023-04-29T02:20:37;0.28;;;0.15;;
49221;SDS011;35047;37.588;-122.048;2023-04-29T02:23:04;0.77;;;0.38;;
49221;SDS011;35047;37.588;-122.048;2023-04-29T02:25:31;0.20;;;0.13;;
49221;SDS011;35047;37.588;-122.048;2023-04-29T02:27:57;0.10;;;0.10;;
49221;SDS011;35047;37.588;-122.048;2023-04-29T02:30:24;0.20;;;0.10;;
49221;SDS011;35047;37.588;-122.048;2023-04-29T02:32:51;0.43;;;0.28;;
49221;SDS011;35047;37.588;-122.048;2023-04-29T02:35:18;0.13;;;0.10;;
49221;SDS011;35047;37.588;-122.048;2023-04-29T02:40:12;0.10;;;0.10;;
49221;SDS011;35047;37.588;-122.048;2023-04-29T02:42:38;3.42;;;0.60;;
49221;SDS011;35047;37.588;-122.048;2023-04-29T02:45:06;0.00;;;0.00;;
49221;SDS011;35047;37.588;-122.048;2023-04-29T02:47:33;0.10;;;0.10;;
49221;SDS011;35047;37.588;-122.048;2023-04-29T02:49:59;0.77;;;0.43;;
49221;SDS011;35047;37.588;-122.048;2023-04-29T02:52:26;0.10;;;0.10;;
49221;SDS011;35047;37.588;-122.048;2023-04-29T02:54:52;0.10;;;0.10;;
49221;SDS011;35047;37.588;-122.048;2023-04-29T02:57:19;0.43;;;0.43;;
49221;SDS011;35047;37.588;-122.048;2023-04-29T02:59:45;2.42;;;0.60;;
49221;SDS011;35047;37.588;-122.048;2023-04-29T03:02:12;0.87;;;0.30;;
49221;SDS011;35047;37.588;-122.048;2023-04-29T03:04:39;0.00;;;0.00;;
49221;SDS011;35047;37.588;-122.048;2023-04-29T03:07:05;0.30;;;0.10;;
49221;SDS011;35047;37.588;-122.048;2023-04-29T03:09:32;0.10;;;0.10;;
49221;SDS011;35047;37.588;-122.048;2023-04-29T03:11:58;0.28;;;0.20;;
49221;SDS011;35047;37.588;-122.048;2023-04-29T03:14:25;0.13;;;0.10;;
49221;SDS011;35047;37.588;-122.048;2023-04-29T03:16:51;0.23;;;0.23;;
49221;SDS011;35047;37.588;-122.048;2023-04-29T03:19:20;1.92;;;0.38;;
49221;SDS011;35047;37.588;-122.048;2023-04-29T03:21:47;0.10;;;0.10;;
49221;SDS011;35047;37.588;-122.048;2023-04-29T03:26:40;0.75;;;0.30;;
49221;SDS011;35047;37.588;-122.048;2023-04-29T03:29:10;0.20;;;0.20;;
49221;SDS011;35047;37.588;-122.048;2023-04-29T03:31:36;0.30;;;0.20;;
49221;SDS011;35047;37.588;-122.048;2023-04-29T03:34:03;0.30;;;0.20;;
49221;SDS011;35047;37.588;-122.048;2023-04-29T03:36:29;0.25;;;0.25;;
49221;SDS011;35047;37.588;-122.048;2023-04-29T03:38:56;0.82;;;0.32;;
49221;SDS011;35047;37.588;-122.048;2023-04-29T03:41:23;0.10;;;0.10;;
49221;SDS011;35047;37.588;-122.048;2023-04-29T03:43:49;1.07;;;0.50;;
49221;SDS011;35047;37.588;-122.048;2023-04-29T03:46:16;0.50;;;0.30;;
49221;SDS011;35047;37.588;-122.048;2023-04-29T03:48:42;0.43;;;0.28;;
49221;SDS011;35047;37.588;-122.048;2023-04-29T03:51:09;0.60;;;0.33;;
49221;SDS011;35047;37.588;-122.048;2023-04-29T03:53:35;0.27;;;0.27;;
49221;SDS011;35047;37.588;-122.048;2023-04-29T03:56:02;0.20;;;0.20;;
49221;SDS011;35047;37.588;-122.048;2023-04-29T03:58:29;0.08;;;0.08;;
49221;SDS011;35047;37.588;-122.048;2023-04-29T04:00:55;0.43;;;0.20;;
49221;SDS011;35047;37.588;-122.048;2023-04-29T04:03:22;0.00;;;0.00;;
49221;SDS011;35047;37.588;-122.048;2023-04-29T04:05:50;0.63;;;0.32;;
49221;SDS011;35047;37.588;-122.048;2023-04-29T04:08:16;0.30;;;0.30;;
49221;SDS011;35047;37.588;-122.048;2023-04-29T04:10:43;0.60;;;0.37;;
49221;SDS011;35047;37.588;-122.048;2023-04-29T04:13:09;0.37;;;0.37;;
49221;SDS011;35047;37.588;-122.048;2023-04-29T04:15:35;1.08;;;0.52;;
49221;SDS011;35047;37.588;-122.048;2023-04-29T04:18:02;0.13;;;0.13;;
49221;SDS011;35047;37.588;-122.048;2023-04-29T04:20:29;0.40;;;0.32;;
49221;SDS011;35047;37.588;-122.048;2023-04-29T04:22:56;0.55;;;0.30;;
49221;SDS011;35047;37.588;-122.048;2023-04-29T04:25:22;0.50;;;0.37;;
49221;SDS011;35047;37.588;-122.048;2023-04-29T04:27:49;0.37;;;0.17;;
49221;SDS011;35047;37.588;-122.048;2023-04-29T04:30:16;0.85;;;0.45;;
49221;SDS011;35047;37.588;-122.048;2023-04-29T04:32:42;0.17;;;0.17;;
49221;SDS011;35047;37.588;-122.048;2023-04-29T04:35:09;0.28;;;0.28;;
49221;SDS011;35047;37.588;-122.048;2023-04-29T04:37:36;0.30;;;0.30;;
49221;SDS011;35047;37.588;-122.048;2023-04-29T04:40:02;0.10;;;0.10;;
49221;SDS011;35047;37.588;-122.048;2023-04-29T04:42:29;0.10;;;0.10;;
49221;SDS011;35047;37.588;-122.048;2023-04-29T04:44:56;0.38;;;0.32;;
49221;SDS011;35047;37.588;-122.048;2023-04-29T04:47:22;0.27;;;0.13;;
49221;SDS011;35047;37.588;-122.048;2023-04-29T04:49:49;0.73;;;0.50;;
49221;SDS011;35047;37.588;-122.048;2023-04-29T04:52:19;0.70;;;0.40;;
49221;SDS011;35047;37.588;-122.048;2023-04-29T04:54:46;0.50;;;0.50;;
49221;SDS011;35047;37.588;-122.048;2023-04-29T04:57:13;0.20;;;0.20;;
49221;SDS011;35047;37.588;-122.048;2023-04-29T04:59:39;0.20;;;0.20;;
49221;SDS011;35047;37.588;-122.048;2023-04-29T05:02:06;0.15;;;0.13;;
49221;SDS011;35047;37.588;-122.048;2023-04-29T05:04:33;0.20;;;0.20;;
49221;SDS011;35047;37.588;-122.048;2023-04-29T05:06:59;0.65;;;0.32;;
49221;SDS011;35047;37.588;-122.048;2023-04-29T05:09:26;0.28;;;0.28;;
49221;SDS011;35047;37.588;-122.048;2023-04-29T05:11:53;0.20;;;0.20;;
49221;SDS011;35047;37.588;-122.048;2023-04-29T05:14:20;0.70;;;0.50;;
49221;SDS011;35047;37.588;-122.048;2023-04-29T05:16:47;1.30;;;0.47;;
49221;SDS011;35047;37.588;-122.048;2023-04-29T05:19:13;1.88;;;0.30;;
49221;SDS011;35047;37.588;-122.048;2023-04-29T05:21:40;1.23;;;0.60;;
49221;SDS011;35047;37.588;-122.048;2023-04-29T05:24:06;0.27;;;0.20;;
49221;SDS011;35047;37.588;-122.048;2023-04-29T05:26:33;1.35;;;0.68;;
49221;SDS011;35047;37.588;-122.048;2023-04-29T05:28:59;0.75;;;0.20;;
49221;SDS011;35047;37.588;-122.048;2023-04-29T05:31:27;19.17;;;0.57;;
49221;SDS011;35047;37.588;-122.048;2023-04-29T05:33:53;0.10;;;0.10;;
49221;SDS011;35047;37.588;-122.048;2023-04-29T05:36:20;0.22;;;0.22;;
49221;SDS011;35047;37.588;-122.048;2023-04-29T05:38:46;1.35;;;0.25;;
49221;SDS011;35047;37.588;-122.048;2023-04-29T05:41:13;0.98;;;0.68;;
49221;SDS011;35047;37.588;-122.048;2023-04-29T05:43:39;0.20;;;0.20;;
49221;SDS011;35047;37.588;-122.048;2023-04-29T05:46:06;0.20;;;0.20;;
49221;SDS011;35047;37.588;-122.048;2023-04-29T05:48:32;2.90;;;0.40;;
49221;SDS011;35047;37.588;-122.048;2023-04-29T05:50:59;1.83;;;0.43;;
49221;SDS011;35047;37.588;-122.048;2023-04-29T05:53:26;0.70;;;0.25;;
49221;SDS011;35047;37.588;-122.048;2023-04-29T05:55:52;0.05;;;0.05;;
49221;SDS011;35047;37.588;-122.048;2023-04-29T05:58:19;0.30;;;0.30;;
49221;SDS011;35047;37.588;-122.048;2023-04-29T06:00:45;0.37;;;0.37;;
49221;SDS011;35047;37.588;-122.048;2023-04-29T06:03:13;0.32;;;0.32;;
49221;SDS011;35047;37.588;-122.048;2023-04-29T06:05:41;0.30;;;0.30;;
49221;SDS011;35047;37.588;-122.048;2023-04-29T06:08:07;0.20;;;0.20;;
49221;SDS011;35047;37.588;-122.048;2023-04-29T06:13:01;4.18;;;0.43;;
49221;SDS011;35047;37.588;-122.048;2023-04-29T06:15:27;0.63;;;0.63;;
49221;SDS011;35047;37.588;-122.048;2023-04-29T06:17:54;0.82;;;0.55;;
49221;SDS011;35047;37.588;-122.048;2023-04-29T06:20:20;0.45;;;0.45;;
49221;SDS011;35047;37.588;-122.048;2023-04-29T06:22:47;0.60;;;0.50;;
49221;SDS011;35047;37.588;-122.048;2023-04-29T06:25:13;1.35;;;0.47;;
49221;SDS011;35047;37.588;-122.048;2023-04-29T06:27:40;0.38;;;0.38;;
49221;SDS011;35047;37.588;-122.048;2023-04-29T06:30:07;0.05;;;0.05;;
49221;SDS011;35047;37.588;-122.048;2023-04-29T06:32:34;0.50;;;0.38;;
49221;SDS011;35047;37.588;-122.048;2023-04-29T06:35:00;0.28;;;0.28;;
49221;SDS011;35047;37.588;-122.048;2023-04-29T06:37:27;1.27;;;0.60;;
49221;SDS011;35047;37.588;-122.048;2023-04-29T06:39:53;0.70;;;0.50;;
49221;SDS011;35047;37.588;-122.048;2023-04-29T06:42:20;1.95;;;0.40;;
49221;SDS011;35047;37.588;-122.048;2023-04-29T06:44:46;1.00;;;0.63;;
49221;SDS011;35047;37.588;-122.048;2023-04-29T06:47:13;0.80;;;0.70;;
49221;SDS011;35047;37.588;-122.048;2023-04-29T06:49:39;0.75;;;0.50;;
49221;SDS011;35047;37.588;-122.048;2023-04-29T06:52:08;0.22;;;0.22;;
49221;SDS011;35047;37.588;-122.048;2023-04-29T06:54:34;0.30;;;0.30;;
49221;SDS011;35047;37.588;-122.048;2023-04-29T06:57:01;0.55;;;0.32;;
49221;SDS011;35047;37.588;-122.048;2023-04-29T06:59:27;0.40;;;0.40;;
49221;SDS011;35047;37.588;-122.048;2023-04-29T07:01:53;6.72;;;0.80;;
49221;SDS011;35047;37.588;-122.048;2023-04-29T07:04:20;0.43;;;0.43;;
49221;SDS011;35047;37.588;-122.048;2023-04-29T07:06:47;0.33;;;0.33;;
49221;SDS011;35047;37.588;-122.048;2023-04-29T07:09:13;0.40;;;0.40;;
49221;SDS011;35047;37.588;-122.048;2023-04-29T07:11:40;0.17;;;0.17;;
49221;SDS011;35047;37.588;-122.048;2023-04-29T07:14:06;0.70;;;0.45;;
49221;SDS011;35047;37.588;-122.048;2023-04-29T07:16:33;0.52;;;0.52;;
49221;SDS011;35047;37.588;-122.048;2023-04-29T07:18:59;1.00;;;0.32;;
49221;SDS011;35047;37.588;-122.048;2023-04-29T07:21:26;0.73;;;0.63;;
49221;SDS011;35047;37.588;-122.048;2023-04-29T07:23:53;1.05;;;0.45;;
49221;SDS011;35047;37.588;-122.048;2023-04-29T07:26:20;0.70;;;0.52;;
49221;SDS011;35047;37.588;-122.048;2023-04-29T07:28:47;0.55;;;0.50;;
49221;SDS011;35047;37.588;-122.048;2023-04-29T07:31:14;0.85;;;0.55;;
49221;SDS011;35047;37.588;-122.048;2023-04-29T07:33:40;4.55;;;0.82;;
49221;SDS011;35047;37.588;-122.048;2023-04-29T07:36:09;0.20;;;0.20;;
49221;SDS011;35047;37.588;-122.048;2023-04-29T07:38:36;0.45;;;0.43;;
49221;SDS011;35047;37.588;-122.048;2023-04-29T07:41:02;0.45;;;0.40;;
49221;SDS011;35047;37.588;-122.048;2023-04-29T07:43:29;0.28;;;0.28;;
49221;SDS011;35047;37.588;-122.048;2023-04-29T07:45:55;1.52;;;0.73;;
49221;SDS011;35047;37.588;-122.048;2023-04-29T07:48:23;2.28;;;0.77;;
49221;SDS011;35047;37.588;-122.048;2023-04-29T07:50:50;1.73;;;1.10;;
49221;SDS011;35047;37.588;-122.048;2023-04-29T07:53:17;3.13;;;1.63;;
49221;SDS011;35047;37.588;-122.048;2023-04-29T07:55:43;2.70;;;1.02;;
49221;SDS011;35047;37.588;-122.048;2023-04-29T07:58:10;1.67;;;1.33;;
49221;SDS011;35047;37.588;-122.048;2023-04-29T08:00:36;1.27;;;1.00;;
49221;SDS011;35047;37.588;-122.048;2023-04-29T08:03:03;1.20;;;1.10;;
49221;SDS011;35047;37.588;-122.048;2023-04-29T08:05:29;0.50;;;0.50;;
49221;SDS011;35047;37.588;-122.048;2023-04-29T08:07:56;1.75;;;0.85;;
49221;SDS011;35047;37.588;-122.048;2023-04-29T08:10:23;0.43;;;0.40;;
49221;SDS011;35047;37.588;-122.048;2023-04-29T08:12:53;0.10;;;0.10;;
49221;SDS011;35047;37.588;-122.048;2023-04-29T08:15:20;1.17;;;0.73;;
49221;SDS011;35047;37.588;-122.048;2023-04-29T08:17:48;0.57;;;0.38;;
49221;SDS011;35047;37.588;-122.048;2023-04-29T08:20:14;0.70;;;0.70;;
49221;SDS011;35047;37.588;-122.048;2023-04-29T08:22:41;1.15;;;0.38;;
49221;SDS011;35047;37.588;-122.048;2023-04-29T08:25:07;1.38;;;0.50;;
49221;SDS011;35047;37.588;-122.048;2023-04-29T08:27:34;0.32;;;0.32;;
49221;SDS011;35047;37.588;-122.048;2023-04-29T08:30:01;0.73;;;0.57;;
49221;SDS011;35047;37.588;-122.048;2023-04-29T08:32:27;2.50;;;0.97;;
49221;SDS011;35047;37.588;-122.048;2023-04-29T08:34:54;0.95;;;0.82;;
49221;SDS011;35047;37.588;-122.048;2023-04-29T08:37:20;2.65;;;0.73;;
49221;SDS011;35047;37.588;-122.048;2023-04-29T08:39:47;0.55;;;0.47;;
49221;SDS011;35047;37.588;-122.048;2023-04-29T08:42:13;0.80;;;0.68;;
49221;SDS011;35047;37.588;-122.048;2023-04-29T08:44:41;0.35;;;0.35;;
49221;SDS011;35047;37.588;-122.048;2023-04-29T08:47:08;0.73;;;0.73;;
49221;SDS011;35047;37.588;-122.048;2023-04-29T08:49:36;2.28;;;1.65;;
49221;SDS011;35047;37.588;-122.048;2023-04-29T08:52:02;3.35;;;1.80;;
49221;SDS011;35047;37.588;-122.048;2023-04-29T08:54:30;2.00;;;1.80;;
49221;SDS011;35047;37.588;-122.048;2023-04-29T08:56:57;1.80;;;1.65;;
49221;SDS011;35047;37.588;-122.048;2023-04-29T09:01:53;1.92;;;1.42;;
49221;SDS011;35047;37.588;-122.048;2023-04-29T09:04:29;1.65;;;1.55;;
49221;SDS011;35047;37.588;-122.048;2023-04-29T09:07:06;2.13;;;1.70;;
49221;SDS011;35047;37.588;-122.048;2023-04-29T09:09:33;3.72;;;2.03;;
49221;SDS011;35047;37.588;-122.048;2023-04-29T09:12:00;4.45;;;2.15;;
49221;SDS011;35047;37.588;-122.048;2023-04-29T09:14:26;1.33;;;1.23;;
49221;SDS011;35047;37.588;-122.048;2023-04-29T09:16:57;1.45;;;0.85;;
49221;SDS011;35047;37.588;-122.048;2023-04-29T09:19:34;1.08;;;0.90;;
49221;SDS011;35047;37.588;-122.048;2023-04-29T09:22:02;1.45;;;1.02;;
49221;SDS011;35047;37.588;-122.048;2023-04-29T09:24:31;1.17;;;0.65;;
49221;SDS011;35047;37.588;-122.048;2023-04-29T09:26:58;1.08;;;0.93;;
49221;SDS011;35047;37.588;-122.048;2023-04-29T09:29:25;1.05;;;0.85;;
49221;SDS011;35047;37.588;-122.048;2023-04-29T09:31:52;1.00;;;0.90;;
49221;SDS011;35047;37.588;-122.048;2023-04-29T09:34:32;1.50;;;1.20;;
49221;SDS011;35047;37.588;-122.048;2023-04-29T09:37:03;0.35;;;0.35;;
49221;SDS011;35047;37.588;-122.048;2023-04-29T09:39:52;1.10;;;0.80;;
49221;SDS011;35047;37.588;-122.048;2023-04-29T09:42:19;0.70;;;0.70;;
49221;SDS011;35047;37.588;-122.048;2023-04-29T09:44:46;0.77;;;0.63;;
49221;SDS011;35047;37.588;-122.048;2023-04-29T09:47:12;3.03;;;0.87;;
49221;SDS011;35047;37.588;-122.048;2023-04-29T09:49:42;1.50;;;1.13;;
49221;SDS011;35047;37.588;-122.048;2023-04-29T09:52:15;1.08;;;1.00;;
49221;SDS011;35047;37.588;-122.048;2023-04-29T09:54:43;1.20;;;0.90;;
49221;SDS011;35047;37.588;-122.048;2023-04-29T09:57:10;0.57;;;0.52;;
49221;SDS011;35047;37.588;-122.048;2023-04-29T09:59:43;5.80;;;1.00;;
49221;SDS011;35047;37.588;-122.048;2023-04-29T10:04:47;0.55;;;0.55;;
49221;SDS011;35047;37.588;-122.048;2023-04-29T10:07:18;1.00;;;0.55;;
49221;SDS011;35047;37.588;-122.048;2023-04-29T10:09:45;0.73;;;0.63;;
49221;SDS011;35047;37.588;-122.048;2023-04-29T10:12:16;2.38;;;0.90;;
49221;SDS011;35047;37.588;-122.048;2023-04-29T10:14:47;0.80;;;0.80;;
49221;SDS011;35047;37.588;-122.048;2023-04-29T10:17:23;1.50;;;0.70;;
49221;SDS011;35047;37.588;-122.048;2023-04-29T10:20:15;4.55;;;1.00;;
49221;SDS011;35047;37.588;-122.048;2023-04-29T10:22:49;2.90;;;1.10;;
49221;SDS011;35047;37.588;-122.048;2023-04-29T10:25:21;0.68;;;0.65;;
49221;SDS011;35047;37.588;-122.048;2023-04-29T10:27:52;0.55;;;0.55;;
49221;SDS011;35047;37.588;-122.048;2023-04-29T10:30:21;1.00;;;0.88;;
49221;SDS011;35047;37.588;-122.048;2023-04-29T10:32:48;0.52;;;0.50;;
49221;SDS011;35047;37.588;-122.048;2023-04-29T10:35:16;1.00;;;0.70;;
49221;SDS011;35047;37.588;-122.048;2023-04-29T10:37:44;0.45;;;0.40;;
49221;SDS011;35047;37.588;-122.048;2023-04-29T10:40:23;0.35;;;0.35;;
49221;SDS011;35047;37.588;-122.048;2023-04-29T10:42:56;1.40;;;0.55;;
49221;SDS011;35047;37.588;-122.048;2023-04-29T10:45:27;7.30;;;0.63;;
49221;SDS011;35047;37.588;-122.048;2023-04-29T10:53:19;1.70;;;0.80;;
49221;SDS011;35047;37.588;-122.048;2023-04-29T10:55:47;1.30;;;1.20;;
49221;SDS011;35047;37.588;-122.048;2023-04-29T11:01:12;1.42;;;1.33;;
49221;SDS011;35047;37.588;-122.048;2023-04-29T11:03:50;1.23;;;1.13;;
49221;SDS011;35047;37.588;-122.048;2023-04-29T11:09:14;1.23;;;0.63;;
49221;SDS011;35047;37.588;-122.048;2023-04-29T11:17:03;0.68;;;0.45;;
49221;SDS011;35047;37.588;-122.048;2023-04-29T11:19:47;2.15;;;0.73;;
49221;SDS011;35047;37.588;-122.048;2023-04-29T11:24:55;0.60;;;0.60;;
49221;SDS011;35047;37.588;-122.048;2023-04-29T11:27:44;3.20;;;1.40;;
49221;SDS011;35047;37.588;-122.048;2023-04-29T11:30:13;0.73;;;0.73;;
49221;SDS011;35047;37.588;-122.048;2023-04-29T11:32:41;1.35;;;1.27;;
49221;SDS011;35047;37.588;-122.048;2023-04-29T11:35:08;2.92;;;1.67;;
49221;SDS011;35047;37.588;-122.048;2023-04-29T11:37:42;1.35;;;1.25;;
49221;SDS011;35047;37.588;-122.048;2023-04-29T11:40:09;1.00;;;1.00;;
49221;SDS011;35047;37.588;-122.048;2023-04-29T11:42:42;3.88;;;1.52;;
49221;SDS011;35047;37.588;-122.048;2023-04-29T11:45:10;0.98;;;0.98;;
49221;SDS011;35047;37.588;-122.048;2023-04-29T11:47:37;1.05;;;0.80;;
49221;SDS011;35047;37.588;-122.048;2023-04-29T11:50:09;2.80;;;0.70;;
49221;SDS011;35047;37.588;-122.048;2023-04-29T11:52:37;2.45;;;1.65;;
49221;SDS011;35047;37.588;-122.048;2023-04-29T11:55:07;1.60;;;1.15;;
49221;SDS011;35047;37.588;-122.048;2023-04-29T11:57:34;0.82;;;0.70;;
49221;SDS011;35047;37.588;-122.048;2023-04-29T12:00:01;0.60;;;0.60;;
49221;SDS011;35047;37.588;-122.048;2023-04-29T12:02:29;2.00;;;1.30;;
49221;SDS011;35047;37.588;-122.048;2023-04-29T12:04:56;1.27;;;1.17;;
49221;SDS011;35047;37.588;-122.048;2023-04-29T12:07:25;2.00;;;1.45;;
49221;SDS011;35047;37.588;-122.048;2023-04-29T12:09:51;1.60;;;1.30;;
49221;SDS011;35047;37.588;-122.048;2023-04-29T12:12:21;1.50;;;1.30;;
49221;SDS011;35047;37.588;-122.048;2023-04-29T12:14:48;1.17;;;1.08;;
49221;SDS011;35047;37.588;-122.048;2023-04-29T12:17:15;1.23;;;1.05;;
49221;SDS011;35047;37.588;-122.048;2023-04-29T12:19:42;2.13;;;1.05;;
49221;SDS011;35047;37.588;-122.048;2023-04-29T12:22:10;0.82;;;0.82;;
49221;SDS011;35047;37.588;-122.048;2023-04-29T12:24:36;3.15;;;1.50;;
49221;SDS011;35047;37.588;-122.048;2023-04-29T12:27:06;2.28;;;1.42;;
49221;SDS011;35047;37.588;-122.048;2023-04-29T12:29:35;2.28;;;1.73;;
49221;SDS011;35047;37.588;-122.048;2023-04-29T12:32:02;1.58;;;1.05;;
49221;SDS011;35047;37.588;-122.048;2023-04-29T12:34:29;1.52;;;1.42;;
49221;SDS011;35047;37.588;-122.048;2023-04-29T12:36:59;1.67;;;0.80;;
49221;SDS011;35047;37.588;-122.048;2023-04-29T12:39:27;0.80;;;0.80;;
49221;SDS011;35047;37.588;-122.048;2023-04-29T12:41:56;2.80;;;1.17;;
49221;SDS011;35047;37.588;-122.048;2023-04-29T12:44:24;1.50;;;1.40;;
49221;SDS011;35047;37.588;-122.048;2023-04-29T12:46:50;3.13;;;1.98;;
49221;SDS011;35047;37.588;-122.048;2023-04-29T12:49:18;1.65;;;1.23;;
49221;SDS011;35047;37.588;-122.048;2023-04-29T12:51:45;1.13;;;0.68;;
49221;SDS011;35047;37.588;-122.048;2023-04-29T12:54:12;0.73;;;0.73;;
49221;SDS011;35047;37.588;-122.048;2023-04-29T12:56:38;0.82;;;0.82;;
49221;SDS011;35047;37.588;-122.048;2023-04-29T12:59:05;0.87;;;0.87;;
49221;SDS011;35047;37.588;-122.048;2023-04-29T13:01:34;1.17;;;1.10;;
49221;SDS011;35047;37.588;-122.048;2023-04-29T13:04:02;0.80;;;0.80;;
49221;SDS011;35047;37.588;-122.048;2023-04-29T13:06:30;1.10;;;0.85;;
49221;SDS011;35047;37.588;-122.048;2023-04-29T13:08:57;2.13;;;1.33;;
49221;SDS011;35047;37.588;-122.048;2023-04-29T13:11:24;0.50;;;0.50;;
49221;SDS011;35047;37.588;-122.048;2023-04-29T13:13:50;1.10;;;1.00;;
49221;SDS011;35047;37.588;-122.048;2023-04-29T13:16:17;0.90;;;0.90;;
49221;SDS011;35047;37.588;-122.048;2023-04-29T13:18:43;1.73;;;0.77;;
49221;SDS011;35047;37.588;-122.048;2023-04-29T13:21:10;1.65;;;1.55;;
49221;SDS011;35047;37.588;-122.048;2023-04-29T13:23:36;1.20;;;1.00;;
49221;SDS011;35047;37.588;-122.048;2023-04-29T13:26:03;1.73;;;1.25;;
49221;SDS011;35047;37.588;-122.048;2023-04-29T13:28:30;0.82;;;0.82;;
49221;SDS011;35047;37.588;-122.048;2023-04-29T13:30:56;1.55;;;1.40;;
49221;SDS011;35047;37.588;-122.048;2023-04-29T13:33:23;32.05;;;0.80;;
49221;SDS011;35047;37.588;-122.048;2023-04-29T13:35:49;1.05;;;0.95;;
49221;SDS011;35047;37.588;-122.048;2023-04-29T13:38:15;0.70;;;0.60;;
49221;SDS011;35047;37.588;-122.048;2023-04-29T13:40:42;0.77;;;0.70;;
49221;SDS011;35047;37.588;-122.048;2023-04-29T13:43:10;0.70;;;0.70;;
49221;SDS011;35047;37.588;-122.048;2023-04-29T13:45:37;0.60;;;0.47;;
49221;SDS011;35047;37.588;-122.048;2023-04-29T13:48:04;0.70;;;0.70;;
49221;SDS011;35047;37.588;-122.048;2023-04-29T13:50:32;0.68;;;0.68;;
49221;SDS011;35047;37.588;-122.048;2023-04-29T13:52:59;2.00;;;1.42;;
49221;SDS011;35047;37.588;-122.048;2023-04-29T13:55:25;0.77;;;0.77;;
49221;SDS011;35047;37.588;-122.048;2023-04-29T13:57:52;0.95;;;0.90;;
49221;SDS011;35047;37.588;-122.048;2023-04-29T14:00:19;1.77;;;1.05;;
49221;SDS011;35047;37.588;-122.048;2023-04-29T14:02:45;0.63;;;0.63;;
49221;SDS011;35047;37.588;-122.048;2023-04-29T14:05:12;1.83;;;0.35;;
49221;SDS011;35047;37.588;-122.048;2023-04-29T14:07:38;0.40;;;0.40;;
49221;SDS011;35047;37.588;-122.048;2023-04-29T14:10:05;4.68;;;0.90;;
49221;SDS011;35047;37.588;-122.048;2023-04-29T14:12:31;1.10;;;0.60;;
49221;SDS011;35047;37.588;-122.048;2023-04-29T14:14:58;0.57;;;0.55;;
49221;SDS011;35047;37.588;-122.048;2023-04-29T14:17:25;0.60;;;0.60;;
49221;SDS011;35047;37.588;-122.048;2023-04-29T14:19:51;0.77;;;0.63;;
49221;SDS011;35047;37.588;-122.048;2023-04-29T14:22:18;0.68;;;0.68;;
49221;SDS011;35047;37.588;-122.048;2023-04-29T14:24:45;0.60;;;0.60;;
49221;SDS011;35047;37.588;-122.048;2023-04-29T14:27:12;0.77;;;0.70;;
49221;SDS011;35047;37.588;-122.048;2023-04-29T14:29:38;0.65;;;0.65;;
49221;SDS011;35047;37.588;-122.048;2023-04-29T14:32:05;0.50;;;0.50;;
49221;SDS011;35047;37.588;-122.048;2023-04-29T14:34:31;2.93;;;1.37;;
49221;SDS011;35047;37.588;-122.048;2023-04-29T14:36:58;1.33;;;0.90;;
49221;SDS011;35047;37.588;-122.048;2023-04-29T14:39:24;1.00;;;1.00;;
49221;SDS011;35047;37.588;-122.048;2023-04-29T14:41:52;1.10;;;1.00;;
49221;SDS011;35047;37.588;-122.048;2023-04-29T14:44:19;2.15;;;0.70;;
49221;SDS011;35047;37.588;-122.048;2023-04-29T14:46:45;1.43;;;0.80;;
49221;SDS011;35047;37.588;-122.048;2023-04-29T14:49:12;0.47;;;0.47;;
49221;SDS011;35047;37.588;-122.048;2023-04-29T14:51:39;0.75;;;0.75;;
49221;SDS011;35047;37.588;-122.048;2023-04-29T14:54:05;2.63;;;0.90;;
49221;SDS011;35047;37.588;-122.048;2023-04-29T14:56:32;0.88;;;0.88;;